Time;durP1;ratioP1;P1;durP2;ratioP2;P2;SDS_P1;SDS_P2;PMS_P1;PMS_P2;Temp;Humidity;BMP_temperature;BMP_pressure;BME280_temperature;BME280_humidity;BME280_pressure;Samples;Min_cycle;Max_cycle;Signal;HPM_P1;HPM_P2
2023/03/27 00:01:37;;;;;;;6.30;3.30;;;;;;;8.07;70.17;99812.38;4195296;28;20044;-64
2023/03/27 00:03:41;;;;;;;7.82;3.72;;;;;;;8.10;69.68;99813.28;4193784;28;20044;-64
2023/03/27 00:05:44;;;;;;;8.40;3.97;;;;;;;7.97;69.02;99814.84;4193371;28;20040;-64
2023/03/27 00:07:48;;;;;;;6.45;4.07;;;;;;;7.81;69.49;99830.97;4191879;28;20040;-65
2023/03/27 00:09:52;;;;;;;8.00;4.70;;;;;;;7.85;67.77;99831.06;4176340;28;20040;-64
2023/03/27 00:11:55;;;;;;;9.33;5.73;;;;;;;7.84;67.55;99841.38;4195988;28;20037;-64
2023/03/27 00:13:58;;;;;;;7.95;4.43;;;;;;;7.87;66.75;99836.28;4195964;28;20490;-64
2023/03/27 00:16:04;;;;;;;9.02;4.47;;;;;;;7.77;66.56;99853.38;4191781;28;20123;-64
2023/03/27 00:18:07;;;;;;;8.52;4.63;;;;;;;7.70;66.46;99851.53;4193920;28;20033;-64
2023/03/27 00:20:10;;;;;;;12.95;4.75;;;;;;;7.62;66.21;99859.19;4195172;28;20032;-64
2023/03/27 00:22:13;;;;;;;11.57;5.07;;;;;;;7.57;66.45;99865.13;4194679;28;20052;-65
2023/03/27 00:24:16;;;;;;;18.02;6.10;;;;;;;7.53;65.79;99861.59;4194696;28;20029;-64
2023/03/27 00:26:20;;;;;;;18.05;6.15;;;;;;;7.48;65.81;99871.00;4176958;28;20121;-65
2023/03/27 00:28:25;;;;;;;16.08;5.75;;;;;;;7.42;66.41;99881.25;4195067;28;20063;-64
2023/03/27 00:30:30;;;;;;;16.77;5.18;;;;;;;7.43;66.19;99890.72;4195401;28;20509;-65
2023/03/27 00:32:35;;;;;;;13.45;5.28;;;;;;;7.41;65.46;99890.69;4196355;28;20036;-65
2023/03/27 00:34:37;;;;;;;13.23;5.15;;;;;;;7.37;65.42;99895.78;4193082;28;20529;-65
2023/03/27 00:36:42;;;;;;;15.95;5.75;;;;;;;7.47;64.45;99903.72;4204922;28;20032;-65
2023/03/27 00:38:45;;;;;;;15.57;4.95;;;;;;;7.37;64.94;99913.91;4191532;28;20067;-65
2023/03/27 00:40:49;;;;;;;16.90;5.25;;;;;;;7.31;64.88;99912.91;4191030;28;20523;-64
2023/03/27 00:42:56;;;;;;;13.88;5.30;;;;;;;7.28;65.28;99927.53;4192215;28;20035;-64
2023/03/27 00:44:59;;;;;;;15.27;4.53;;;;;;;7.23;65.57;99926.53;4194235;28;20094;-64
2023/03/27 00:47:03;;;;;;;15.23;5.45;;;;;;;7.18;65.55;99920.44;4189022;28;20045;-64
2023/03/27 00:49:10;;;;;;;14.48;5.43;;;;;;;7.24;65.59;99921.44;4172747;28;20091;-63
2023/03/27 00:51:14;;;;;;;19.98;5.07;;;;;;;7.20;66.26;99926.50;4184080;28;20033;-64
2023/03/27 00:53:21;;;;;;;15.35;5.28;;;;;;;7.28;65.22;99925.78;4183625;28;20040;-64
2023/03/27 00:55:28;;;;;;;19.55;5.40;;;;;;;7.33;65.16;99931.94;4191431;28;20474;-65
2023/03/27 00:57:31;;;;;;;12.95;5.35;;;;;;;7.23;65.96;99927.44;4174194;28;20029;-64
2023/03/27 00:59:40;;;;;;;12.35;5.20;;;;;;;7.31;65.58;99925.84;4178304;28;20033;-64
2023/03/27 01:01:44;;;;;;;15.32;4.55;;;;;;;7.28;64.90;99930.97;4187915;28;20132;-64
2023/03/27 01:03:49;;;;;;;16.48;5.10;;;;;;;7.19;65.28;99930.81;4175727;28;20144;-64
2023/03/27 01:05:55;;;;;;;14.02;5.15;;;;;;;7.25;65.64;99942.97;4201384;28;20032;-65
2023/03/27 01:08:00;;;;;;;19.15;5.80;;;;;;;7.13;66.38;99951.38;4183070;28;20101;-65
2023/03/27 01:10:07;;;;;;;12.30;4.57;;;;;;;7.12;65.04;99949.63;4179260;28;20039;-64
2023/03/27 01:12:20;;;;;;;10.32;3.42;;;;;;;7.09;64.76;99971.09;4177419;28;20033;-64
2023/03/27 01:14:31;;;;;;;13.18;3.63;;;;;;;7.18;63.08;99964.38;4176641;28;20405;-64
2023/03/27 01:16:41;;;;;;;19.60;4.32;;;;;;;7.14;62.49;99978.94;4204392;28;20572;-64
2023/03/27 01:18:54;;;;;;;12.32;3.85;;;;;;;7.14;61.82;99968.59;4193965;28;20033;-64
2023/03/27 01:21:29;;;;;;;11.55;3.45;;;;;;;7.19;61.40;99977.34;4192699;28;20443;-65
2023/03/27 01:23:50;;;;;;;10.45;3.25;;;;;;;7.27;60.27;99990.41;4171266;28;20039;-64
2023/03/27 01:26:45;;;;;;;11.45;3.15;;;;;;;7.20;58.68;99983.38;4191526;28;20045;-65
2023/03/27 01:28:54;;;;;;;17.30;3.67;;;;;;;7.30;58.37;99995.63;4200325;28;20040;-65
2023/03/27 01:31:05;;;;;;;9.05;2.60;;;;;;;7.17;58.66;100002.28;4204226;28;20402;-65
2023/03/27 01:33:34;;;;;;;19.02;3.55;;;;;;;7.21;58.14;100004.06;4172950;28;20039;-65
2023/03/27 01:35:57;;;;;;;11.95;2.58;;;;;;;7.10;56.14;99995.25;4173378;28;20033;-66
2023/03/27 01:38:24;;;;;;;11.93;2.78;;;;;;;7.09;56.37;100002.13;4166070;28;20124;-65
2023/03/27 01:40:32;;;;;;;10.60;2.55;;;;;;;7.01;56.57;100007.97;4197677;28;20059;-65
2023/03/27 01:42:40;;;;;;;14.18;3.15;;;;;;;6.97;56.66;100018.25;4187105;28;20048;-65
2023/03/27 01:44:48;;;;;;;16.50;2.75;;;;;;;6.94;57.35;100018.19;4200387;28;21076;-65
2023/03/27 01:46:55;;;;;;;9.82;2.65;;;;;;;7.10;57.09;100024.53;4184405;28;20041;-65
2023/03/27 01:49:04;;;;;;;14.80;4.60;;;;;;;7.22;56.98;100030.81;4166649;28;20505;-65
2023/03/27 01:51:13;;;;;;;17.83;4.10;;;;;;;7.07;56.40;100044.31;4183336;28;20060;-65
2023/03/27 01:53:22;;;;;;;11.50;2.88;;;;;;;7.03;56.97;100048.50;4166832;28;20051;-65
2023/03/27 01:55:30;;;;;;;14.82;4.07;;;;;;;6.97;57.49;100051.84;4180069;28;20175;-66
2023/03/27 01:57:40;;;;;;;7.38;3.10;;;;;;;6.86;57.57;100067.94;4184303;28;20040;-65
2023/03/27 01:59:57;;;;;;;13.20;3.03;;;;;;;6.79;57.92;100079.81;4171077;28;20041;-65
2023/03/27 02:02:25;;;;;;;12.27;3.28;;;;;;;6.92;56.67;100081.00;4193093;28;20172;-65
2023/03/27 02:04:37;;;;;;;13.55;3.08;;;;;;;6.81;55.74;100088.50;4182569;28;20037;-65
2023/03/27 02:06:45;;;;;;;10.27;2.80;;;;;;;6.55;55.81;100083.59;4189606;28;20127;-65
2023/03/27 02:08:55;;;;;;;12.40;2.97;;;;;;;6.45;57.36;100079.03;4194077;28;20140;-65
2023/03/27 02:11:00;;;;;;;13.77;2.72;;;;;;;6.55;56.50;100086.16;4192394;28;20458;-65
2023/03/27 02:13:08;;;;;;;14.18;3.63;;;;;;;6.49;57.29;100101.50;4178834;28;20036;-65
2023/03/27 02:15:15;;;;;;;16.25;3.42;;;;;;;6.51;56.74;100092.09;4185454;28;20036;-66
2023/03/27 02:17:33;;;;;;;12.82;4.10;;;;;;;6.39;55.91;100102.97;4195667;28;20033;-66
2023/03/27 02:19:42;;;;;;;15.50;2.92;;;;;;;6.29;56.81;100094.16;4197934;28;20041;-65
2023/03/27 02:21:46;;;;;;;16.67;2.88;;;;;;;6.32;55.36;100116.56;4189536;28;20044;-65
2023/03/27 02:23:50;;;;;;;16.73;2.75;;;;;;;6.42;55.03;100133.19;4195968;28;20127;-66
2023/03/27 02:25:54;;;;;;;12.80;2.58;;;;;;;6.19;55.49;100128.31;4187216;28;20039;-65
2023/03/27 02:28:28;;;;;;;13.55;3.08;;;;;;;6.18;55.56;100136.88;4178985;28;20036;-65
2023/03/27 02:30:40;;;;;;;10.93;2.95;;;;;;;6.13;55.71;100153.06;4196839;28;20036;-65
2023/03/27 02:32:52;;;;;;;16.10;3.22;;;;;;;5.98;54.74;100153.53;4178357;28;20040;-66
2023/03/27 02:35:17;;;;;;;9.40;3.13;;;;;;;5.90;55.46;100168.75;4181786;28;20570;-66
2023/03/27 02:37:29;;;;;;;12.88;2.65;;;;;;;6.07;54.36;100164.09;4187926;28;20502;-66
2023/03/27 02:40:00;;;;;;;17.92;4.00;;;;;;;6.00;54.13;100177.66;4196692;28;20532;-66
2023/03/27 02:42:11;;;;;;;22.23;2.55;;;;;;;5.88;54.18;100186.75;4179143;28;20041;-66
2023/03/27 02:44:29;;;;;;;11.93;2.33;;;;;;;5.77;53.81;100194.19;4196046;28;20387;-67
2023/03/27 02:46:39;;;;;;;11.38;2.78;;;;;;;5.67;54.11;100199.03;4196323;28;20383;-67
2023/03/27 02:48:46;;;;;;;9.80;2.58;;;;;;;5.59;54.78;100202.25;4186415;28;20040;-68
2023/03/27 02:50:54;;;;;;;12.48;2.40;;;;;;;5.57;54.37;100203.91;4178535;28;20041;-68
2023/03/27 02:53:01;;;;;;;8.88;2.55;;;;;;;5.56;54.40;100204.75;4188545;28;20056;-67
2023/03/27 02:55:09;;;;;;;4.18;2.03;;;;;;;5.53;54.52;100207.22;4189547;28;20037;-66
2023/03/27 02:57:17;;;;;;;12.63;2.22;;;;;;;5.40;55.40;100212.81;4182403;28;20032;-66
2023/03/27 02:59:51;;;;;;;10.48;2.28;;;;;;;5.44;55.55;100222.41;4176671;28;20131;-67
2023/03/27 03:01:54;;;;;;;12.60;2.53;;;;;;;5.46;55.70;100236.25;4187847;28;20399;-66
2023/03/27 03:04:03;;;;;;;10.13;2.97;;;;;;;5.35;55.86;100233.31;4201328;28;20070;-66
2023/03/27 03:06:28;;;;;;;9.05;3.03;;;;;;;5.40;55.91;100228.28;4196934;28;20037;-66
2023/03/27 03:08:37;;;;;;;9.13;2.30;;;;;;;5.50;55.42;100237.19;4178012;28;20083;-66
2023/03/27 03:10:44;;;;;;;9.63;2.55;;;;;;;5.48;55.15;100241.44;4199489;28;20033;-67
2023/03/27 03:12:48;;;;;;;10.15;2.65;;;;;;;5.47;54.62;100248.28;4190177;28;20048;-66
2023/03/27 03:14:52;;;;;;;6.15;2.15;;;;;;;5.20;55.98;100248.31;4192900;28;20043;-66
2023/03/27 03:16:55;;;;;;;9.77;3.25;;;;;;;5.25;56.15;100246.72;4165648;28;20041;-66
2023/03/27 03:18:58;;;;;;;13.68;2.60;;;;;;;5.24;55.83;100252.69;4194607;28;20040;-67
2023/03/27 03:21:01;;;;;;;18.85;3.03;;;;;;;5.33;54.79;100272.75;4204627;28;20051;-65
2023/03/27 03:23:04;;;;;;;12.52;2.22;;;;;;;5.30;54.76;100272.66;4193566;28;20501;-66
2023/03/27 03:25:08;;;;;;;9.48;2.25;;;;;;;5.17;55.37;100274.84;4196719;28;20127;-66
2023/03/27 03:27:13;;;;;;;15.25;3.05;;;;;;;5.20;55.18;100282.66;4196926;28;20532;-66
2023/03/27 03:29:35;;;;;;;7.55;2.30;;;;;;;5.27;54.07;100286.34;4207338;28;20040;-65
2023/03/27 03:31:49;;;;;;;12.60;2.55;;;;;;;5.19;54.62;100293.78;4176357;28;20064;-65
2023/03/27 03:33:52;;;;;;;9.05;1.83;;;;;;;5.07;54.96;100304.56;4166746;28;20044;-65
2023/03/27 03:35:57;;;;;;;12.27;2.33;;;;;;;5.04;54.90;100307.03;4166504;28;20466;-65
2023/03/27 03:38:06;;;;;;;12.07;2.17;;;;;;;4.94;55.53;100307.56;4197543;28;20033;-65
2023/03/27 03:40:20;;;;;;;11.05;4.93;;;;;;;4.88;55.73;100321.09;4180137;28;20037;-66
2023/03/27 03:42:29;;;;;;;6.35;2.10;;;;;;;4.93;55.54;100331.56;4187844;28;20069;-65
2023/03/27 03:44:33;;;;;;;10.98;2.95;;;;;;;4.94;55.39;100338.47;4202565;28;20043;-65
2023/03/27 03:46:45;;;;;;;11.13;2.92;;;;;;;4.72;55.82;100358.31;4164965;28;20063;-65
2023/03/27 03:48:56;;;;;;;10.27;2.67;;;;;;;4.82;55.50;100358.63;4193906;28;20032;-64
2023/03/27 03:51:01;;;;;;;9.45;2.30;;;;;;;4.76;56.34;100366.13;4189753;28;20097;-66
2023/03/27 03:53:04;;;;;;;13.00;3.45;;;;;;;4.75;55.91;100374.69;4192015;28;20560;-65
2023/03/27 03:55:10;;;;;;;11.43;2.03;;;;;;;4.64;56.43;100366.56;4171698;28;20414;-68
2023/03/27 03:57:13;;;;;;;8.75;3.03;;;;;;;4.60;58.47;100378.47;4182728;28;20132;-59
2023/03/27 03:59:20;;;;;;;9.98;2.88;;;;;;;4.70;59.74;100384.81;4177565;28;20037;-59
2023/03/27 04:01:41;;;;;;;5.68;1.88;;;;;;;4.78;57.87;100383.41;4189598;28;20044;-64
2023/03/27 04:03:45;;;;;;;9.43;2.20;;;;;;;4.85;56.83;100390.53;4189983;28;20032;-63
2023/03/27 04:05:49;;;;;;;9.65;2.58;;;;;;;4.54;57.46;100392.00;4193996;28;20369;-63
2023/03/27 04:07:52;;;;;;;9.05;2.42;;;;;;;4.62;57.17;100396.53;4158001;28;20041;-63
2023/03/27 04:09:58;;;;;;;12.40;2.42;;;;;;;4.52;57.58;100413.34;4193178;28;20371;-64
2023/03/27 04:12:03;;;;;;;21.70;2.78;;;;;;;4.65;56.88;100419.81;4194437;28;20036;-64
2023/03/27 04:14:23;;;;;;;6.35;2.00;;;;;;;4.40;57.65;100416.31;4181929;28;20348;-63
2023/03/27 04:16:28;;;;;;;12.45;3.13;;;;;;;4.53;57.05;100421.13;4183444;28;20399;-63
2023/03/27 04:18:33;;;;;;;8.50;2.70;;;;;;;4.49;57.28;100428.66;4200826;28;20056;-63
2023/03/27 04:20:41;;;;;;;13.48;2.15;;;;;;;4.47;57.81;100438.91;4182019;28;20473;-62
2023/03/27 04:22:49;;;;;;;12.07;2.20;;;;;;;4.47;57.39;100433.75;4176022;28;20043;-63
2023/03/27 04:24:56;;;;;;;7.93;2.25;;;;;;;4.64;56.90;100441.25;4196447;28;20025;-64
2023/03/27 04:27:00;;;;;;;20.88;2.78;;;;;;;4.54;56.92;100445.16;4178550;28;20128;-64
2023/03/27 04:29:13;;;;;;;6.80;2.15;;;;;;;4.28;57.72;100449.28;4195656;28;20036;-64
2023/03/27 04:31:34;;;;;;;10.38;1.98;;;;;;;4.20;58.01;100459.28;4196137;28;20032;-63
2023/03/27 04:34:01;;;;;;;;;;;;;;;4.28;57.18;100463.06;4159740;28;20528;-63
2023/03/27 04:36:24;;;;;;;13.63;2.95;;;;;;;4.18;57.89;100466.94;4196046;28;20015;-64
2023/03/27 04:38:44;;;;;;;14.48;2.33;;;;;;;4.24;57.67;100473.16;4187059;28;20537;-64
2023/03/27 04:40:50;;;;;;;9.05;2.13;;;;;;;4.26;57.99;100472.38;4196874;28;20032;-64
2023/03/27 04:42:54;;;;;;;15.00;2.55;;;;;;;4.42;57.34;100481.59;4211122;28;20119;-64
2023/03/27 04:44:57;;;;;;;17.10;3.13;;;;;;;4.41;57.53;100490.16;4194035;28;20029;-63
2023/03/27 04:47:01;;;;;;;8.38;2.00;;;;;;;4.42;57.29;100488.44;4205316;28;20063;-64
2023/03/27 04:49:04;;;;;;;11.40;2.65;;;;;;;4.34;57.50;100501.88;4193501;28;20036;-64
2023/03/27 04:51:31;;;;;;;11.45;2.55;;;;;;;4.39;56.95;100502.06;4187639;28;20048;-64
2023/03/27 04:53:36;;;;;;;18.40;2.45;;;;;;;4.31;56.86;100499.19;4210233;28;20028;-64
2023/03/27 04:55:42;;;;;;;9.45;2.17;;;;;;;4.32;57.23;100511.25;4210522;28;20028;-64
2023/03/27 04:57:45;;;;;;;9.90;2.08;;;;;;;4.18;57.83;100520.97;4168669;28;20652;-64
2023/03/27 04:59:49;;;;;;;17.98;3.17;;;;;;;4.18;57.71;100517.53;4183868;28;20040;-64
2023/03/27 05:02:12;;;;;;;18.05;2.88;;;;;;;4.31;57.58;100516.34;4184420;28;20320;-64
2023/03/27 05:04:25;;;;;;;9.57;2.33;;;;;;;4.30;57.02;100530.88;4209613;28;20082;-64
2023/03/27 05:06:48;;;;;;;12.95;2.65;;;;;;;4.27;57.40;100527.31;4186285;28;20041;-64
2023/03/27 05:08:52;;;;;;;12.18;2.45;;;;;;;4.12;57.64;100533.59;4190267;28;20532;-64
2023/03/27 05:11:07;;;;;;;8.30;2.50;;;;;;;4.12;58.00;100543.03;4177926;28;20045;-64
2023/03/27 05:13:15;;;;;;;16.00;2.47;;;;;;;4.21;57.06;100542.53;4205571;22;20342;-63
2023/03/27 05:15:20;;;;;;;10.85;2.70;;;;;;;4.09;58.26;100551.47;4207238;28;20035;-66
2023/03/27 05:17:24;;;;;;;;;;;;;;;4.16;57.83;100563.78;4212795;28;20039;-63
2023/03/27 05:19:28;;;;;;;7.65;1.88;;;;;;;4.10;57.66;100562.63;4205266;28;19919;-65
2023/03/27 05:21:34;;;;;;;10.48;2.67;;;;;;;4.04;58.47;100560.69;4210276;28;20070;-63
2023/03/27 05:23:37;;;;;;;7.28;2.47;;;;;;;4.15;57.59;100574.03;4202017;28;20044;-65
2023/03/27 05:25:44;;;;;;;9.73;2.78;;;;;;;4.16;57.92;100576.66;4162625;28;20114;-64
2023/03/27 05:28:10;;;;;;;14.45;2.45;;;;;;;4.13;58.13;100586.81;4208843;28;20105;-64
2023/03/27 05:30:14;;;;;;;9.52;2.05;;;;;;;4.10;57.88;100591.81;4193566;28;20032;-63
2023/03/27 05:32:17;;;;;;;8.43;2.00;;;;;;;4.08;57.81;100598.59;4193386;28;20107;-65
2023/03/27 05:34:25;;;;;;;9.00;1.98;;;;;;;4.26;57.32;100602.75;4193484;28;20498;-64
2023/03/27 05:36:30;;;;;;;9.73;2.15;;;;;;;4.24;57.49;100620.72;4177248;28;20044;-65
2023/03/27 05:38:33;;;;;;;11.38;2.65;;;;;;;4.15;57.36;100610.91;4176908;28;20457;-65
2023/03/27 05:40:46;;;;;;;11.73;3.22;;;;;;;4.08;57.92;100624.31;4182980;28;20036;-64
2023/03/27 05:42:53;;;;;;;12.25;2.67;;;;;;;4.13;57.83;100617.69;4184111;28;20037;-64
2023/03/27 05:44:58;;;;;;;13.50;2.20;;;;;;;4.04;58.31;100621.56;4213625;28;20063;-65
2023/03/27 05:47:02;;;;;;;9.82;2.45;;;;;;;4.22;58.08;100627.50;4194857;28;20391;-65
2023/03/27 05:49:06;;;;;;;11.63;2.45;;;;;;;4.15;57.97;100636.63;4196199;28;20075;-64
2023/03/27 05:51:09;;;;;;;13.60;2.78;;;;;;;4.05;58.13;100637.06;4196948;28;20064;-65
2023/03/27 05:53:14;;;;;;;13.27;2.35;;;;;;;4.02;59.00;100639.50;4213155;28;20036;-64
2023/03/27 05:55:50;;;;;;;15.30;2.88;;;;;;;3.99;58.87;100647.09;4198166;28;20461;-64
2023/03/27 05:58:13;;;;;;;9.90;2.03;;;;;;;4.12;58.99;100651.94;4183815;28;20119;-64
2023/03/27 06:00:23;;;;;;;8.02;2.50;;;;;;;4.08;58.54;100655.19;4202813;28;20112;-65
2023/03/27 06:02:28;;;;;;;14.95;3.08;;;;;;;4.15;58.35;100657.22;4181454;28;20522;-64
2023/03/27 06:04:34;;;;;;;9.43;1.85;;;;;;;4.15;58.51;100666.66;4207740;28;20040;-64
2023/03/27 06:06:45;;;;;;;10.60;2.53;;;;;;;4.19;58.34;100668.50;4189864;28;20053;-64
2023/03/27 06:08:48;;;;;;;7.00;2.03;;;;;;;4.21;58.57;100674.63;4195818;28;20120;-64
2023/03/27 06:10:51;;;;;;;15.27;2.95;;;;;;;4.15;58.19;100682.94;4213084;28;20114;-65
2023/03/27 06:13:08;;;;;;;16.15;3.28;;;;;;;4.17;58.53;100685.59;4195985;28;20123;-64
2023/03/27 06:15:24;;;;;;;16.02;3.83;;;;;;;4.27;58.41;100697.16;4195343;28;20029;-65
2023/03/27 06:18:03;;;;;;;12.27;3.13;;;;;;;4.31;58.16;100705.09;4144547;28;20531;-65
2023/03/27 06:20:14;;;;;;;13.82;2.90;;;;;;;4.33;57.63;100715.44;4163759;28;20101;-65
2023/03/27 06:22:24;;;;;;;9.75;2.50;;;;;;;4.26;58.17;100722.00;4179416;28;20048;-65
2023/03/27 06:24:26;;;;;;;15.00;4.05;;;;;;;4.34;57.97;100719.78;4190085;28;20476;-65
2023/03/27 06:26:29;;;;;;;11.82;2.53;;;;;;;4.22;58.27;100730.44;4185481;28;20047;-65
2023/03/27 06:28:37;;;;;;;7.65;1.90;;;;;;;4.34;58.21;100735.22;4196120;28;20043;-65
2023/03/27 06:30:42;;;;;;;10.50;2.42;;;;;;;4.71;56.68;100737.66;4196137;28;20048;-65
2023/03/27 06:33:20;;;;;;;8.73;2.65;;;;;;;4.48;57.60;100748.69;4177214;28;20051;-65
2023/03/27 06:35:26;;;;;;;17.63;3.50;;;;;;;4.55;57.46;100756.72;4195552;28;20771;-65
2023/03/27 06:37:35;;;;;;;11.77;2.42;;;;;;;4.65;57.24;100752.00;4207985;28;20044;-63
2023/03/27 06:39:39;;;;;;;11.95;3.40;;;;;;;4.72;57.26;100754.03;4196011;28;20070;-64
2023/03/27 06:41:42;;;;;;;13.77;2.28;;;;;;;4.68;57.44;100753.00;4198491;28;20056;-64
2023/03/27 06:44:05;;;;;;;8.88;2.10;;;;;;;4.90;56.33;100762.50;4195530;28;20494;-64
2023/03/27 06:46:22;;;;;;;10.00;2.42;;;;;;;4.92;56.39;100756.56;4178908;28;20055;-64
2023/03/27 06:48:50;;;;;;;12.10;3.25;;;;;;;4.89;56.84;100773.66;4196359;28;20561;-64
2023/03/27 06:50:54;;;;;;;8.40;2.95;;;;;;;4.76;56.95;100775.63;4211763;28;20501;-63
2023/03/27 06:52:58;;;;;;;7.40;2.28;;;;;;;4.74;56.50;100773.00;4195544;28;20048;-63
2023/03/27 06:55:14;;;;;;;12.25;2.75;;;;;;;4.75;56.97;100771.31;4178495;28;20483;-64
2023/03/27 06:57:25;;;;;;;12.80;1.92;;;;;;;4.82;56.59;100792.25;4212417;28;20028;-64
2023/03/27 06:59:31;;;;;;;16.95;3.72;;;;;;;4.70;57.16;100786.53;4195554;28;20089;-65
2023/03/27 07:01:38;;;;;;;12.32;3.45;;;;;;;4.79;56.93;100788.63;4178751;28;20041;-63
2023/03/27 07:03:59;;;;;;;11.82;2.28;;;;;;;4.88;56.55;100797.66;4207684;28;20052;-64
2023/03/27 07:06:21;;;;;;;9.30;2.42;;;;;;;5.08;55.89;100800.16;4189841;28;20040;-64
2023/03/27 07:08:32;;;;;;;7.82;2.33;;;;;;;5.07;55.71;100808.75;4180341;28;20103;-64
2023/03/27 07:10:35;;;;;;;15.55;4.28;;;;;;;5.15;55.68;100817.66;4211321;28;20493;-64
2023/03/27 07:12:38;;;;;;;12.07;3.22;;;;;;;5.04;56.08;100818.91;4178515;28;20135;-64
2023/03/27 07:14:41;;;;;;;13.15;2.95;;;;;;;5.14;55.52;100815.00;4190609;28;20491;-65
2023/03/27 07:16:46;;;;;;;9.65;2.90;;;;;;;5.22;55.68;100823.97;4205382;28;20028;-64
2023/03/27 07:18:49;;;;;;;;;;;;;;;5.19;55.78;100835.00;4193535;28;20028;-64
2023/03/27 07:20:52;;;;;;;7.95;3.10;;;;;;;5.34;55.62;100839.91;4195261;28;19925;-64
2023/03/27 07:22:59;;;;;;;13.57;3.42;;;;;;;5.21;55.90;100838.56;4211544;28;20040;-64
2023/03/27 07:25:36;;;;;;;7.53;2.70;;;;;;;5.46;54.51;100851.56;4195214;28;20080;-64
2023/03/27 07:27:41;;;;;;;11.98;3.17;;;;;;;5.36;55.09;100860.59;4189075;28;20513;-64
2023/03/27 07:29:44;;;;;;;18.02;3.17;;;;;;;5.63;53.62;100872.91;4191085;28;20037;-64
2023/03/27 07:31:53;;;;;;;13.40;2.58;;;;;;;5.33;54.26;100856.22;4189733;28;20039;-64
2023/03/27 07:34:22;;;;;;;15.85;2.80;;;;;;;5.44;54.38;100872.13;4208636;28;20044;-64
2023/03/27 07:36:43;;;;;;;11.30;2.42;;;;;;;5.58;54.10;100867.56;4192071;28;20102;-64
2023/03/27 07:38:47;;;;;;;8.23;2.45;;;;;;;5.79;53.30;100884.72;4173546;28;20037;-64
2023/03/27 07:41:05;;;;;;;14.90;2.88;;;;;;;5.56;53.85;100877.81;4211758;28;20082;-64
2023/03/27 07:43:34;;;;;;;11.63;3.92;;;;;;;5.66;52.85;100888.50;4193241;28;20052;-64
2023/03/27 07:45:37;;;;;;;9.07;2.65;;;;;;;5.50;53.42;100890.44;4195043;28;20403;-64
2023/03/27 07:47:43;;;;;;;12.25;3.35;;;;;;;5.69;52.97;100898.94;4194352;28;20549;-65
2023/03/27 07:49:46;;;;;;;13.35;2.70;;;;;;;5.75;52.74;100896.59;4194742;28;20043;-64
2023/03/27 07:51:55;;;;;;;10.27;2.40;;;;;;;5.87;52.71;100903.94;4193998;28;20037;-64
2023/03/27 07:54:00;;;;;;;9.43;3.30;;;;;;;5.83;52.60;100896.94;4211052;28;20131;-64
2023/03/27 07:56:09;;;;;;;13.70;2.72;;;;;;;5.87;52.67;100902.28;4194526;28;20037;-64
2023/03/27 07:58:13;;;;;;;17.30;3.58;;;;;;;6.02;53.12;100904.63;4177571;28;20045;-64
2023/03/27 08:00:20;;;;;;;10.88;2.40;;;;;;;6.20;52.14;100919.94;4210758;28;20123;-64
2023/03/27 08:02:36;;;;;;;12.93;3.00;;;;;;;6.32;50.79;100900.59;4193362;28;20513;-64
2023/03/27 08:04:41;;;;;;;13.82;2.85;;;;;;;6.22;51.29;100905.41;4193419;28;20040;-65
2023/03/27 08:06:45;;;;;;;15.25;3.08;;;;;;;6.21;51.41;100919.13;4154980;28;20534;-64
2023/03/27 08:08:53;;;;;;;5.80;1.98;;;;;;;6.20;51.72;100917.34;4182353;28;20091;-64
2023/03/27 08:11:01;;;;;;;10.40;2.55;;;;;;;6.15;52.61;100921.47;4193559;28;20575;-64
2023/03/27 08:13:11;;;;;;;8.13;2.40;;;;;;;6.32;52.45;100921.25;4177536;28;20048;-64
2023/03/27 08:15:14;;;;;;;11.57;2.25;;;;;;;6.43;52.04;100928.59;4205343;28;20037;-64
2023/03/27 08:17:17;;;;;;;12.90;2.17;;;;;;;6.61;51.09;100928.44;4191502;28;20060;-65
2023/03/27 08:19:24;;;;;;;14.93;3.22;;;;;;;6.72;50.97;100931.41;4190553;28;20044;-65
2023/03/27 08:21:34;;;;;;;9.45;2.90;;;;;;;6.87;50.22;100933.66;4188955;28;20485;-65
2023/03/27 08:23:37;;;;;;;8.85;2.90;;;;;;;6.90;50.76;100933.78;4191543;28;20084;-65
2023/03/27 08:25:43;;;;;;;13.63;4.15;;;;;;;6.95;50.67;100927.09;4195627;28;20391;-65
2023/03/27 08:27:45;;;;;;;9.32;2.60;;;;;;;7.03;50.47;100942.00;4208060;28;20053;-65
2023/03/27 08:29:50;;;;;;;9.55;2.67;;;;;;;7.20;48.66;100930.56;4194207;28;20490;-65
2023/03/27 08:31:53;;;;;;;11.32;2.30;;;;;;;7.22;48.94;100939.22;4178537;28;20059;-65
2023/03/27 08:33:57;;;;;;;13.32;2.40;;;;;;;7.41;48.79;100939.88;4193676;28;20040;-64
2023/03/27 08:36:03;;;;;;;12.38;2.25;;;;;;;7.33;47.92;100948.25;4189115;28;20039;-65
2023/03/27 08:38:08;;;;;;;12.95;2.60;;;;;;;7.43;47.92;100944.28;4194632;28;20043;-65
2023/03/27 08:40:58;;;;;;;14.30;2.60;;;;;;;7.39;48.89;100950.19;4183485;28;20486;-62
2023/03/27 08:43:13;;;;;;;12.07;2.42;;;;;;;7.49;48.48;100953.94;4193703;28;20068;-63
2023/03/27 08:45:23;;;;;;;16.20;2.92;;;;;;;7.54;47.33;100954.13;4190471;28;20041;-64
2023/03/27 08:47:33;;;;;;;12.02;2.75;;;;;;;7.37;47.81;100951.81;4194040;28;20490;-63
2023/03/27 08:49:47;;;;;;;16.38;2.28;;;;;;;7.34;46.55;100955.19;4187983;28;20439;-64
2023/03/27 08:52:05;;;;;;;11.60;3.10;;;;;;;7.27;47.76;100971.31;4210132;28;20046;-63
2023/03/27 08:54:17;;;;;;;12.52;2.55;;;;;;;7.36;47.45;100972.47;4191162;28;20032;-63
2023/03/27 08:56:22;;;;;;;13.80;2.70;;;;;;;7.50;48.07;100960.88;4189173;28;20033;-64
2023/03/27 08:58:27;;;;;;;15.77;2.30;;;;;;;7.71;47.30;100963.34;4200264;28;20063;-63
2023/03/27 09:00:47;;;;;;;13.07;2.85;;;;;;;7.65;48.40;100963.13;4186297;28;20044;-63
2023/03/27 09:03:04;;;;;;;11.65;2.45;;;;;;;7.68;48.06;100966.72;4177503;28;20127;-63
2023/03/27 09:05:14;;;;;;;11.05;1.80;;;;;;;7.75;48.14;100980.72;4182980;28;20494;-63
2023/03/27 09:07:27;;;;;;;10.40;2.33;;;;;;;7.85;45.20;100979.34;4199562;28;20536;-63
2023/03/27 09:09:54;;;;;;;9.50;1.85;;;;;;;7.70;46.13;100979.69;4200267;28;20175;-64
2023/03/27 09:12:08;;;;;;;10.00;1.98;;;;;;;7.69;46.35;100972.75;4188533;28;20124;-64
2023/03/27 09:14:29;;;;;;;12.10;2.83;;;;;;;7.90;46.02;100976.91;4189511;28;20041;-64
2023/03/27 09:16:38;;;;;;;8.73;2.65;;;;;;;7.92;46.65;100980.44;4188546;28;20040;-64
2023/03/27 09:18:47;;;;;;;7.57;2.35;;;;;;;7.92;46.35;100977.84;4188463;28;20037;-64
2023/03/27 09:21:02;;;;;;;13.07;3.05;;;;;;;7.74;46.54;100975.50;4190096;28;20091;-64
2023/03/27 09:23:15;;;;;;;14.32;2.55;;;;;;;7.54;47.58;100973.13;4187100;28;20032;-64
2023/03/27 09:25:47;;;;;;;9.68;1.80;;;;;;;7.50;46.86;100977.31;4207230;28;20564;-64
2023/03/27 09:27:57;;;;;;;7.43;2.10;;;;;;;7.19;46.96;100985.66;4195608;28;20052;-64
2023/03/27 09:30:20;;;;;;;8.75;2.03;;;;;;;6.95;48.38;100989.13;4182828;28;20033;-64
2023/03/27 09:32:31;;;;;;;14.65;2.35;;;;;;;6.89;49.07;100983.72;4190660;28;20041;-64
2023/03/27 09:34:36;;;;;;;4.80;1.67;;;;;;;7.02;49.31;100984.16;4189890;28;20048;-64
2023/03/27 09:36:39;;;;;;;14.20;2.22;;;;;;;7.12;49.33;100981.97;4208474;28;20061;-63
2023/03/27 09:38:49;;;;;;;4.80;1.60;;;;;;;7.21;47.53;100978.84;4189247;28;20041;-63
2023/03/27 09:41:02;;;;;;;6.35;1.60;;;;;;;7.44;46.01;100987.41;4195640;28;20032;-64
2023/03/27 09:43:16;;;;;;;7.20;1.95;;;;;;;7.21;47.60;100986.59;4192887;28;20124;-64
2023/03/27 09:45:20;;;;;;;7.55;1.58;;;;;;;7.13;46.94;100994.06;4173466;28;20048;-64
2023/03/27 09:47:36;;;;;;;11.30;2.03;;;;;;;6.99;46.75;100990.09;4172912;28;20086;-63
2023/03/27 09:49:44;;;;;;;6.45;1.90;;;;;;;7.04;47.30;100980.81;4173430;28;20044;-64
2023/03/27 09:51:53;;;;;;;9.88;1.67;;;;;;;7.15;47.46;100986.38;4189697;28;20039;-64
2023/03/27 09:54:11;;;;;;;4.45;1.65;;;;;;;7.30;47.95;100983.47;4172739;28;20075;-64
2023/03/27 09:56:16;;;;;;;5.20;1.48;;;;;;;7.33;48.45;100988.78;4202002;28;20081;-64
2023/03/27 09:58:31;;;;;;;8.88;2.00;;;;;;;7.19;47.95;100990.84;4205558;28;20040;-63
2023/03/27 10:00:35;;;;;;;5.25;1.85;;;;;;;7.41;47.35;100994.22;4189819;28;20127;-64
2023/03/27 10:02:40;;;;;;;9.40;1.88;;;;;;;7.42;46.59;101002.03;4209205;28;20044;-64
2023/03/27 10:04:58;;;;;;;5.88;1.92;;;;;;;7.60;44.87;100994.03;4189930;28;20060;-64
2023/03/27 10:07:09;;;;;;;8.75;1.40;;;;;;;7.39;45.59;100999.34;4179123;28;20040;-64
2023/03/27 10:09:39;;;;;;;5.85;2.22;;;;;;;7.38;44.93;100994.97;4197431;28;20063;-63